sensor_id;sensor_type;location;lat;lon;timestamp;pressure;altitude;pressure_sealevel;temperature;humidity
19759;BME280;10038;42.662;23.278;2022-08-21T00:02:27;72789.81;;;19.01;100.00
19759;BME280;10038;42.662;23.278;2022-08-21T00:04:56;72792.97;;;18.99;100.00
19759;BME280;10038;42.662;23.278;2022-08-21T00:07:22;72782.06;;;18.92;100.00
19759;BME280;10038;42.662;23.278;2022-08-21T00:09:49;72775.84;;;18.89;100.00
19759;BME280;10038;42.662;23.278;2022-08-21T00:12:16;72773.19;;;18.81;100.00
19759;BME280;10038;42.662;23.278;2022-08-21T00:14:43;72765.78;;;18.77;100.00
19759;BME280;10038;42.662;23.278;2022-08-21T00:17:10;72773.09;;;18.89;100.00
19759;BME280;10038;42.662;23.278;2022-08-21T00:19:36;72747.66;;;18.69;100.00
19759;BME280;10038;42.662;23.278;2022-08-21T00:22:05;72778.31;;;18.93;100.00
19759;BME280;10038;42.662;23.278;2022-08-21T00:24:31;72785.47;;;19.02;100.00
19759;BME280;10038;42.662;23.278;2022-08-21T00:26:59;72790.97;;;19.02;100.00
19759;BME280;10038;42.662;23.278;2022-08-21T00:29:25;72786.31;;;18.98;100.00
19759;BME280;10038;42.662;23.278;2022-08-21T00:31:52;72780.06;;;18.95;100.00
19759;BME280;10038;42.662;23.278;2022-08-21T00:34:19;72779.66;;;18.97;100.00
19759;BME280;10038;42.662;23.278;2022-08-21T00:36:46;72797.94;;;19.08;100.00
19759;BME280;10038;42.662;23.278;2022-08-21T00:39:14;72774.97;;;18.93;100.00
19759;BME280;10038;42.662;23.278;2022-08-21T00:41:42;72773.25;;;18.91;100.00
19759;BME280;10038;42.662;23.278;2022-08-21T00:44:10;72761.72;;;18.74;100.00
19759;BME280;10038;42.662;23.278;2022-08-21T00:46:38;72772.34;;;18.85;100.00
19759;BME280;10038;42.662;23.278;2022-08-21T00:49:06;72760.72;;;18.75;100.00
19759;BME280;10038;42.662;23.278;2022-08-21T00:51:38;72774.09;;;18.87;100.00
19759;BME280;10038;42.662;23.278;2022-08-21T00:54:07;72785.16;;;18.97;100.00
19759;BME280;10038;42.662;23.278;2022-08-21T00:56:36;72773.69;;;18.89;100.00
19759;BME280;10038;42.662;23.278;2022-08-21T00:59:03;72776.44;;;18.89;100.00
19759;BME280;10038;42.662;23.278;2022-08-21T01:01:32;72787.47;;;18.99;100.00
19759;BME280;10038;42.662;23.278;2022-08-21T01:03:59;72774.41;;;18.92;100.00
19759;BME280;10038;42.662;23.278;2022-08-21T01:06:26;72782.97;;;18.97;100.00
19759;BME280;10038;42.662;23.278;2022-08-21T01:08:53;72775.25;;;18.88;100.00
19759;BME280;10038;42.662;23.278;2022-08-21T01:11:20;72763.63;;;18.78;100.00
19759;BME280;10038;42.662;23.278;2022-08-21T01:13:49;72765.69;;;18.84;100.00
19759;BME280;10038;42.662;23.278;2022-08-21T01:16:19;72764.38;;;18.81;100.00
19759;BME280;10038;42.662;23.278;2022-08-21T01:18:47;72782.66;;;18.92;100.00
19759;BME280;10038;42.662;23.278;2022-08-21T01:21:18;72765.94;;;18.80;100.00
19759;BME280;10038;42.662;23.278;2022-08-21T01:23:48;72760.72;;;18.75;100.00
19759;BME280;10038;42.662;23.278;2022-08-21T01:26:18;72753.75;;;18.69;100.00
19759;BME280;10038;42.662;23.278;2022-08-21T01:28:50;72714.50;;;18.40;100.00
19759;BME280;10038;42.662;23.278;2022-08-21T01:31:19;72724.38;;;18.49;100.00
19759;BME280;10038;42.662;23.278;2022-08-21T01:33:48;72713.31;;;18.39;100.00
19759;BME280;10038;42.662;23.278;2022-08-21T01:36:16;72668.41;;;17.98;100.00
19759;BME280;10038;42.662;23.278;2022-08-21T01:38:43;72709.19;;;18.26;100.00
19759;BME280;10038;42.662;23.278;2022-08-21T01:41:10;72708.94;;;18.31;100.00
19759;BME280;10038;42.662;23.278;2022-08-21T01:43:36;72729.88;;;18.49;100.00
19759;BME280;10038;42.662;23.278;2022-08-21T01:46:03;72705.59;;;18.30;100.00
19759;BME280;10038;42.662;23.278;2022-08-21T01:48:30;72645.56;;;17.76;100.00
19759;BME280;10038;42.662;23.278;2022-08-21T01:50:57;72714.75;;;18.36;100.00
19759;BME280;10038;42.662;23.278;2022-08-21T01:53:25;72714.16;;;18.35;100.00
19759;BME280;10038;42.662;23.278;2022-08-21T01:55:52;72709.84;;;18.36;100.00
19759;BME280;10038;42.662;23.278;2022-08-21T01:58:19;72707.19;;;18.29;100.00
19759;BME280;10038;42.662;23.278;2022-08-21T02:00:45;72708.94;;;18.31;100.00
19759;BME280;10038;42.662;23.278;2022-08-21T02:03:12;72709.09;;;18.33;100.00
19759;BME280;10038;42.662;23.278;2022-08-21T02:05:39;72720.31;;;18.45;100.00
19759;BME280;10038;42.662;23.278;2022-08-21T02:08:06;72726.16;;;18.50;100.00
19759;BME280;10038;42.662;23.278;2022-08-21T02:10:34;72722.31;;;18.42;100.00
19759;BME280;10038;42.662;23.278;2022-08-21T02:13:01;72729.31;;;18.48;100.00
19759;BME280;10038;42.662;23.278;2022-08-21T02:15:29;72710.84;;;18.35;100.00
19759;BME280;10038;42.662;23.278;2022-08-21T02:17:59;72704.44;;;18.29;100.00
19759;BME280;10038;42.662;23.278;2022-08-21T02:20:29;72725.38;;;18.47;100.00
19759;BME280;10038;42.662;23.278;2022-08-21T02:22:56;72719.56;;;18.42;100.00
19759;BME280;10038;42.662;23.278;2022-08-21T02:25:24;72702.53;;;18.25;100.00
19759;BME280;10038;42.662;23.278;2022-08-21T02:27:53;72709.38;;;18.28;100.00
19759;BME280;10038;42.662;23.278;2022-08-21T02:30:24;72701.72;;;18.29;100.00
19759;BME280;10038;42.662;23.278;2022-08-21T02:32:51;72701.72;;;18.29;100.00
19759;BME280;10038;42.662;23.278;2022-08-21T02:35:18;72711.00;;;18.37;100.00
19759;BME280;10038;42.662;23.278;2022-08-21T02:37:50;72712.44;;;18.34;100.00
19759;BME280;10038;42.662;23.278;2022-08-21T02:40:19;72708.34;;;18.30;100.00
19759;BME280;10038;42.662;23.278;2022-08-21T02:42:46;72709.53;;;18.31;100.00
19759;BME280;10038;42.662;23.278;2022-08-21T02:45:15;72710.25;;;18.34;100.00
19759;BME280;10038;42.662;23.278;2022-08-21T02:47:47;72710.69;;;18.32;100.00
19759;BME280;10038;42.662;23.278;2022-08-21T02:50:18;72711.25;;;18.33;100.00
19759;BME280;10038;42.662;23.278;2022-08-21T02:52:45;72724.31;;;18.39;100.00
19759;BME280;10038;42.662;23.278;2022-08-21T02:55:12;72732.81;;;18.51;100.00
19759;BME280;10038;42.662;23.278;2022-08-21T02:57:39;72723.81;;;18.48;100.00
19759;BME280;10038;42.662;23.278;2022-08-21T03:00:07;72715.34;;;18.36;100.00
19759;BME280;10038;42.662;23.278;2022-08-21T03:02:37;72706.34;;;18.33;100.00
19759;BME280;10038;42.662;23.278;2022-08-21T03:05:05;72707.19;;;18.29;100.00
19759;BME280;10038;42.662;23.278;2022-08-21T03:07:32;72710.69;;;18.32;100.00
19759;BME280;10038;42.662;23.278;2022-08-21T03:09:59;72692.41;;;18.21;100.00
19759;BME280;10038;42.662;23.278;2022-08-21T03:12:25;72703.72;;;18.26;100.00
19759;BME280;10038;42.662;23.278;2022-08-21T03:14:52;72715.34;;;18.36;100.00
19759;BME280;10038;42.662;23.278;2022-08-21T03:17:19;72706.78;;;18.31;100.00
19759;BME280;10038;42.662;23.278;2022-08-21T03:19:47;72712.69;;;18.29;100.00
19759;BME280;10038;42.662;23.278;2022-08-21T03:22:14;72713.00;;;18.34;100.00
19759;BME280;10038;42.662;23.278;2022-08-21T03:24:41;72699.38;;;18.27;100.00
19759;BME280;10038;42.662;23.278;2022-08-21T03:27:08;72709.53;;;18.31;100.00
19759;BME280;10038;42.662;23.278;2022-08-21T03:29:34;72717.66;;;18.38;100.00
19759;BME280;10038;42.662;23.278;2022-08-21T03:32:01;72716.50;;;18.37;100.00
19759;BME280;10038;42.662;23.278;2022-08-21T03:34:28;72705.75;;;18.33;100.00
19759;BME280;10038;42.662;23.278;2022-08-21T03:36:56;72711.84;;;18.33;100.00
19759;BME280;10038;42.662;23.278;2022-08-21T03:39:23;72736.13;;;18.52;100.00
19759;BME280;10038;42.662;23.278;2022-08-21T03:41:50;72727.38;;;18.44;100.00
19759;BME280;10038;42.662;23.278;2022-08-21T03:44:18;72715.75;;;18.34;100.00
19759;BME280;10038;42.662;23.278;2022-08-21T03:46:45;72671.47;;;18.03;100.00
19759;BME280;10038;42.662;23.278;2022-08-21T03:49:11;72699.78;;;18.25;100.00
19759;BME280;10038;42.662;23.278;2022-08-21T03:51:38;72710.09;;;18.32;100.00
19759;BME280;10038;42.662;23.278;2022-08-21T03:54:06;72714.75;;;18.36;100.00
19759;BME280;10038;42.662;23.278;2022-08-21T03:56:33;72717.66;;;18.38;100.00
19759;BME280;10038;42.662;23.278;2022-08-21T03:59:00;72697.63;;;18.25;100.00
19759;BME280;10038;42.662;23.278;2022-08-21T04:01:28;72699.78;;;18.25;100.00
19759;BME280;10038;42.662;23.278;2022-08-21T04:03:55;72697.31;;;18.20;100.00
19759;BME280;10038;42.662;23.278;2022-08-21T04:06:21;72696.72;;;18.20;100.00
19759;BME280;10038;42.662;23.278;2022-08-21T04:08:48;72704.13;;;18.24;100.00
19759;BME280;10038;42.662;23.278;2022-08-21T04:11:16;72718.81;;;18.39;100.00
19759;BME280;10038;42.662;23.278;2022-08-21T04:13:43;72655.03;;;17.86;100.00
19759;BME280;10038;42.662;23.278;2022-08-21T04:16:10;72714.16;;;18.35;100.00
19759;BME280;10038;42.662;23.278;2022-08-21T04:18:37;72714.00;;;18.33;100.00
19759;BME280;10038;42.662;23.278;2022-08-21T04:21:05;72680.75;;;18.11;100.00
19759;BME280;10038;42.662;23.278;2022-08-21T04:23:33;72704.84;;;18.27;100.00
19759;BME280;10038;42.662;23.278;2022-08-21T04:25:59;72708.34;;;18.30;100.00
19759;BME280;10038;42.662;23.278;2022-08-21T04:28:28;72713.00;;;18.34;100.00
19759;BME280;10038;42.662;23.278;2022-08-21T04:30:55;72720.91;;;18.46;100.00
19759;BME280;10038;42.662;23.278;2022-08-21T04:33:22;72732.97;;;18.54;100.00
19759;BME280;10038;42.662;23.278;2022-08-21T04:35:50;72732.38;;;18.53;100.00
19759;BME280;10038;42.662;23.278;2022-08-21T04:38:17;72699.06;;;18.22;100.00
19759;BME280;10038;42.662;23.278;2022-08-21T04:40:44;72725.38;;;18.47;100.00
19759;BME280;10038;42.662;23.278;2022-08-21T04:43:39;72720.72;;;18.43;100.00
19759;BME280;10038;42.662;23.278;2022-08-21T04:46:06;72710.69;;;18.32;100.00
19759;BME280;10038;42.662;23.278;2022-08-21T04:48:32;72709.53;;;18.31;100.00
19759;BME280;10038;42.662;23.278;2022-08-21T04:51:01;72698.63;;;18.24;100.00
19759;BME280;10038;42.662;23.278;2022-08-21T04:53:33;72751.41;;;18.67;100.00
19759;BME280;10038;42.662;23.278;2022-08-21T04:56:02;72766.25;;;18.85;100.00
19759;BME280;10038;42.662;23.278;2022-08-21T04:58:30;72772.94;;;18.86;100.00
19759;BME280;10038;42.662;23.278;2022-08-21T05:01:00;72738.63;;;18.56;100.00
19759;BME280;10038;42.662;23.278;2022-08-21T05:03:28;72779.34;;;18.92;100.00
19759;BME280;10038;42.662;23.278;2022-08-21T05:05:57;72799.69;;;19.09;100.00
19759;BME280;10038;42.662;23.278;2022-08-21T05:08:25;72820.22;;;19.29;100.00
19759;BME280;10038;42.662;23.278;2022-08-21T05:10:54;72845.25;;;19.51;100.00
19759;BME280;10038;42.662;23.278;2022-08-21T05:13:21;72862.28;;;19.68;100.00
19759;BME280;10038;42.662;23.278;2022-08-21T05:15:48;72846.00;;;19.54;100.00
19759;BME280;10038;42.662;23.278;2022-08-21T05:18:16;72901.84;;;20.02;100.00
19759;BME280;10038;42.662;23.278;2022-08-21T05:20:43;72899.97;;;19.98;100.00
19759;BME280;10038;42.662;23.278;2022-08-21T05:23:12;72889.47;;;19.89;100.00
19759;BME280;10038;42.662;23.278;2022-08-21T05:25:40;72892.53;;;19.94;100.00
19759;BME280;10038;42.662;23.278;2022-08-21T05:28:08;72872.44;;;19.72;100.00
19759;BME280;10038;42.662;23.278;2022-08-21T05:30:37;72880.75;;;19.82;100.00
19759;BME280;10038;42.662;23.278;2022-08-21T05:33:05;72926.00;;;20.19;100.00
19759;BME280;10038;42.662;23.278;2022-08-21T05:35:34;72954.88;;;20.48;99.00
19759;BME280;10038;42.662;23.278;2022-08-21T05:38:01;72970.00;;;20.62;96.46
19759;BME280;10038;42.662;23.278;2022-08-21T05:40:29;72944.66;;;20.35;96.77
19759;BME280;10038;42.662;23.278;2022-08-21T05:42:56;72945.06;;;20.33;96.76
19759;BME280;10038;42.662;23.278;2022-08-21T05:45:28;72919.31;;;20.18;97.35
19759;BME280;10038;42.662;23.278;2022-08-21T05:47:55;72918.47;;;20.22;97.71
19759;BME280;10038;42.662;23.278;2022-08-21T05:50:22;72907.41;;;20.12;98.36
19759;BME280;10038;42.662;23.278;2022-08-21T05:52:50;72919.91;;;20.18;98.06
19759;BME280;10038;42.662;23.278;2022-08-21T05:55:17;72927.50;;;20.25;97.65
19759;BME280;10038;42.662;23.278;2022-08-21T05:57:43;72912.03;;;20.07;98.08
19759;BME280;10038;42.662;23.278;2022-08-21T06:00:11;72913.50;;;20.13;99.04
19759;BME280;10038;42.662;23.278;2022-08-21T06:02:38;72878.00;;;19.82;100.00
19759;BME280;10038;42.662;23.278;2022-08-21T06:05:06;72933.91;;;20.30;98.75
19759;BME280;10038;42.662;23.278;2022-08-21T06:07:33;73013.44;;;21.04;96.20
19759;BME280;10038;42.662;23.278;2022-08-21T06:10:02;73060.63;;;21.45;92.71
19759;BME280;10038;42.662;23.278;2022-08-21T06:12:29;73045.16;;;21.27;92.12
19759;BME280;10038;42.662;23.278;2022-08-21T06:14:55;73020.69;;;21.05;92.50
19759;BME280;10038;42.662;23.278;2022-08-21T06:17:22;73080.44;;;21.62;91.85
19759;BME280;10038;42.662;23.278;2022-08-21T06:19:51;73165.25;;;22.30;86.13
19759;BME280;10038;42.662;23.278;2022-08-21T06:22:18;73223.47;;;22.78;84.60
19759;BME280;10038;42.662;23.278;2022-08-21T06:24:45;73254.25;;;23.12;83.06
19759;BME280;10038;42.662;23.278;2022-08-21T06:27:13;73226.25;;;22.88;80.47
19759;BME280;10038;42.662;23.278;2022-08-21T06:29:40;73308.53;;;23.59;80.77
19759;BME280;10038;42.662;23.278;2022-08-21T06:32:10;73327.22;;;23.75;79.46
19759;BME280;10038;42.662;23.278;2022-08-21T06:34:38;73484.31;;;25.11;77.00
19759;BME280;10038;42.662;23.278;2022-08-21T06:37:05;73572.00;;;25.87;71.88
19759;BME280;10038;42.662;23.278;2022-08-21T06:39:32;73624.63;;;26.32;70.44
19759;BME280;10038;42.662;23.278;2022-08-21T06:41:59;73610.16;;;26.22;69.12
19759;BME280;10038;42.662;23.278;2022-08-21T06:44:28;73844.69;;;28.22;64.21
19759;BME280;10038;42.662;23.278;2022-08-21T06:46:55;73923.91;;;28.92;60.91
19759;BME280;10038;42.662;23.278;2022-08-21T06:49:22;73895.34;;;28.70;60.27
19759;BME280;10038;42.662;23.278;2022-08-21T06:51:49;73758.75;;;27.50;64.97
19759;BME280;10038;42.662;23.278;2022-08-21T06:54:16;73626.97;;;26.34;67.64
19759;BME280;10038;42.662;23.278;2022-08-21T06:56:43;73517.78;;;25.42;70.79
19759;BME280;10038;42.662;23.278;2022-08-21T06:59:09;73362.81;;;24.06;75.04
19759;BME280;10038;42.662;23.278;2022-08-21T07:01:38;73332.47;;;23.80;77.53
19759;BME280;10038;42.662;23.278;2022-08-21T07:04:04;73302.13;;;23.54;80.08
19759;BME280;10038;42.662;23.278;2022-08-21T07:06:31;73245.78;;;23.00;80.79
19759;BME280;10038;42.662;23.278;2022-08-21T07:08:58;73240.97;;;23.03;81.44
19759;BME280;10038;42.662;23.278;2022-08-21T07:11:26;73308.53;;;23.49;80.92
19759;BME280;10038;42.662;23.278;2022-08-21T07:13:53;73418.31;;;24.54;76.50
19759;BME280;10038;42.662;23.278;2022-08-21T07:16:21;73609.44;;;26.19;70.92
19759;BME280;10038;42.662;23.278;2022-08-21T07:18:50;73732.41;;;27.27;67.25
19759;BME280;10038;42.662;23.278;2022-08-21T07:21:17;73641.72;;;26.49;65.61
19759;BME280;10038;42.662;23.278;2022-08-21T07:23:46;73619.38;;;26.27;67.16
19759;BME280;10038;42.662;23.278;2022-08-21T07:26:15;73649.94;;;26.56;66.32
19759;BME280;10038;42.662;23.278;2022-08-21T07:28:42;73650.09;;;26.49;67.48
19759;BME280;10038;42.662;23.278;2022-08-21T07:31:12;73610.03;;;26.19;67.86
19759;BME280;10038;42.662;23.278;2022-08-21T07:33:40;73579.03;;;25.93;68.72
19759;BME280;10038;42.662;23.278;2022-08-21T07:36:09;73646.56;;;26.56;67.22
19759;BME280;10038;42.662;23.278;2022-08-21T07:38:36;73722.34;;;27.16;63.12
19759;BME280;10038;42.662;23.278;2022-08-21T07:41:10;73864.13;;;28.41;59.67
19759;BME280;10038;42.662;23.278;2022-08-21T07:43:39;74063.84;;;30.10;54.20
19759;BME280;10038;42.662;23.278;2022-08-21T07:46:05;74417.88;;;33.17;47.48
19759;BME280;10038;42.662;23.278;2022-08-21T07:48:32;74652.53;;;35.21;40.34
19759;BME280;10038;42.662;23.278;2022-08-21T07:51:02;74505.06;;;33.97;41.69
19759;BME280;10038;42.662;23.278;2022-08-21T07:53:34;74211.91;;;31.42;48.22
19759;BME280;10038;42.662;23.278;2022-08-21T07:56:02;74038.66;;;29.89;55.00
19759;BME280;10038;42.662;23.278;2022-08-21T07:58:29;73921.41;;;28.88;59.40
19759;BME280;10038;42.662;23.278;2022-08-21T08:00:55;74031.75;;;29.85;56.46
19759;BME280;10038;42.662;23.278;2022-08-21T08:03:22;74318.13;;;32.34;48.90
19759;BME280;10038;42.662;23.278;2022-08-21T08:05:49;74466.75;;;33.61;44.54
19759;BME280;10038;42.662;23.278;2022-08-21T08:08:16;74620.16;;;34.93;41.22
19759;BME280;10038;42.662;23.278;2022-08-21T08:10:44;74534.94;;;34.20;42.99
19759;BME280;10038;42.662;23.278;2022-08-21T08:13:12;74222.47;;;31.51;49.29
19759;BME280;10038;42.662;23.278;2022-08-21T08:15:38;73993.16;;;29.54;53.43
19759;BME280;10038;42.662;23.278;2022-08-21T08:18:05;73829.00;;;28.10;58.04
19759;BME280;10038;42.662;23.278;2022-08-21T08:20:32;73747.03;;;27.40;59.81
19759;BME280;10038;42.662;23.278;2022-08-21T08:22:59;73755.09;;;27.44;60.49
19759;BME280;10038;42.662;23.278;2022-08-21T08:25:26;73905.13;;;28.76;54.59
19759;BME280;10038;42.662;23.278;2022-08-21T08:27:54;73960.81;;;29.24;53.57
19759;BME280;10038;42.662;23.278;2022-08-21T08:30:21;73878.66;;;28.51;55.27
19759;BME280;10038;42.662;23.278;2022-08-21T08:32:49;73748.09;;;27.38;60.58
19759;BME280;10038;42.662;23.278;2022-08-21T08:35:17;73659.13;;;26.62;63.13
19759;BME280;10038;42.662;23.278;2022-08-21T08:37:44;73753.63;;;27.48;61.66
19759;BME280;10038;42.662;23.278;2022-08-21T08:40:14;73943.81;;;29.09;56.05
19759;BME280;10038;42.662;23.278;2022-08-21T08:42:41;74026.88;;;29.78;52.51
19759;BME280;10038;42.662;23.278;2022-08-21T08:45:12;74018.09;;;29.71;53.95
19759;BME280;10038;42.662;23.278;2022-08-21T08:47:42;74163.81;;;31.01;48.38
19759;BME280;10038;42.662;23.278;2022-08-21T08:50:16;74133.75;;;30.73;48.26
19759;BME280;10038;42.662;23.278;2022-08-21T08:52:47;74251.22;;;31.76;47.86
19759;BME280;10038;42.662;23.278;2022-08-21T08:55:18;74346.34;;;32.58;45.88
19759;BME280;10038;42.662;23.278;2022-08-21T08:57:48;74616.63;;;34.90;39.84
19759;BME280;10038;42.662;23.278;2022-08-21T09:00:20;74492.84;;;33.89;41.19
19759;BME280;10038;42.662;23.278;2022-08-21T09:02:51;74528.00;;;34.16;40.02
19759;BME280;10038;42.662;23.278;2022-08-21T09:05:22;74642.53;;;35.12;37.73
19759;BME280;10038;42.662;23.278;2022-08-21T09:07:58;74521.53;;;34.11;39.04
19759;BME280;10038;42.662;23.278;2022-08-21T09:10:38;74440.91;;;33.39;40.18
19759;BME280;10038;42.662;23.278;2022-08-21T09:13:14;74284.09;;;32.04;43.96
19759;BME280;10038;42.662;23.278;2022-08-21T09:15:50;74451.47;;;33.48;40.90
19759;BME280;10038;42.662;23.278;2022-08-21T09:18:29;74296.44;;;32.15;43.15
19759;BME280;10038;42.662;23.278;2022-08-21T09:21:09;74186.09;;;31.20;47.22
19759;BME280;10038;42.662;23.278;2022-08-21T09:23:47;74044.63;;;29.96;49.70
19759;BME280;10038;42.662;23.278;2022-08-21T09:26:18;74265.31;;;31.88;44.83
19759;BME280;10038;42.662;23.278;2022-08-21T09:28:51;74600.78;;;34.76;38.93
19759;BME280;10038;42.662;23.278;2022-08-21T09:31:24;74452.19;;;33.51;40.03
19759;BME280;10038;42.662;23.278;2022-08-21T09:33:57;74364.53;;;32.74;41.73
19759;BME280;10038;42.662;23.278;2022-08-21T09:36:32;74238.91;;;31.66;43.23
19759;BME280;10038;42.662;23.278;2022-08-21T09:39:00;74264.84;;;31.90;44.25
19759;BME280;10038;42.662;23.278;2022-08-21T09:41:28;74147.81;;;30.85;45.47
19759;BME280;10038;42.662;23.278;2022-08-21T09:43:57;74059.88;;;30.09;48.26
19759;BME280;10038;42.662;23.278;2022-08-21T09:46:26;73979.69;;;29.43;51.88
19759;BME280;10038;42.662;23.278;2022-08-21T09:48:55;73815.38;;;27.96;54.79
19759;BME280;10038;42.662;23.278;2022-08-21T09:51:25;73718.38;;;27.15;58.47
19759;BME280;10038;42.662;23.278;2022-08-21T09:53:55;73674.94;;;26.75;59.58
19759;BME280;10038;42.662;23.278;2022-08-21T09:56:28;73632.38;;;26.41;61.02
19759;BME280;10038;42.662;23.278;2022-08-21T09:59:16;73638.81;;;26.47;60.64
19759;BME280;10038;42.662;23.278;2022-08-21T10:01:46;73688.41;;;26.87;61.73
19759;BME280;10038;42.662;23.278;2022-08-21T10:04:14;73639.84;;;26.45;59.17
19759;BME280;10038;42.662;23.278;2022-08-21T10:06:41;73709.00;;;27.07;58.90
19759;BME280;10038;42.662;23.278;2022-08-21T10:09:10;73801.47;;;27.87;56.50
19759;BME280;10038;42.662;23.278;2022-08-21T10:11:39;73990.56;;;29.47;52.53
19759;BME280;10038;42.662;23.278;2022-08-21T10:14:14;74145.00;;;30.85;48.00
19759;BME280;10038;42.662;23.278;2022-08-21T10:16:52;74233.03;;;31.61;45.09
19759;BME280;10038;42.662;23.278;2022-08-21T10:19:28;74231.84;;;31.60;43.93
19759;BME280;10038;42.662;23.278;2022-08-21T10:22:00;74326.97;;;32.41;43.56
19759;BME280;10038;42.662;23.278;2022-08-21T10:24:33;74469.09;;;33.63;41.39
19759;BME280;10038;42.662;23.278;2022-08-21T10:27:12;74612.50;;;34.86;39.03
19759;BME280;10038;42.662;23.278;2022-08-21T10:29:49;74579.63;;;34.58;39.03
19759;BME280;10038;42.662;23.278;2022-08-21T10:32:31;74456.16;;;33.52;39.99
19759;BME280;10038;42.662;23.278;2022-08-21T10:35:09;74339.88;;;32.52;44.55
19759;BME280;10038;42.662;23.278;2022-08-21T10:37:48;74386.72;;;32.90;43.75
19759;BME280;10038;42.662;23.278;2022-08-21T10:40:23;74411.06;;;33.16;43.09
19759;BME280;10038;42.662;23.278;2022-08-21T10:43:07;74447.94;;;33.45;41.73
19759;BME280;10038;42.662;23.278;2022-08-21T10:45:50;74472.63;;;33.66;40.36
19759;BME280;10038;42.662;23.278;2022-08-21T10:48:25;74550.91;;;34.36;40.53
19759;BME280;10038;42.662;23.278;2022-08-21T10:50:59;74426.22;;;33.27;39.96
19759;BME280;10038;42.662;23.278;2022-08-21T10:53:37;74431.97;;;33.29;41.23
19759;BME280;10038;42.662;23.278;2022-08-21T10:56:14;74526.69;;;34.13;40.76
19759;BME280;10038;42.662;23.278;2022-08-21T10:58:49;74466.16;;;33.61;39.36
19759;BME280;10038;42.662;23.278;2022-08-21T11:01:19;74574.88;;;34.54;38.47
19759;BME280;10038;42.662;23.278;2022-08-21T11:03:53;74660.75;;;35.28;38.00
19759;BME280;10038;42.662;23.278;2022-08-21T11:06:24;74626.16;;;35.01;38.04
19759;BME280;10038;42.662;23.278;2022-08-21T11:08:53;74468.63;;;33.65;39.18
19759;BME280;10038;42.662;23.278;2022-08-21T11:11:26;74427.97;;;33.28;41.27
19759;BME280;10038;42.662;23.278;2022-08-21T11:13:59;74497.28;;;33.88;40.43
19759;BME280;10038;42.662;23.278;2022-08-21T11:16:35;74559.59;;;34.41;39.46
19759;BME280;10038;42.662;23.278;2022-08-21T11:19:08;74567.81;;;34.48;38.68
19759;BME280;10038;42.662;23.278;2022-08-21T11:21:41;74551.38;;;34.34;39.04
19759;BME280;10038;42.662;23.278;2022-08-21T11:24:24;74523.16;;;34.10;38.43
19759;BME280;10038;42.662;23.278;2022-08-21T11:27:01;74523.16;;;34.10;39.23
19759;BME280;10038;42.662;23.278;2022-08-21T11:29:32;74408.34;;;33.06;41.33
19759;BME280;10038;42.662;23.278;2022-08-21T11:32:10;74548.56;;;34.34;39.54
19759;BME280;10038;42.662;23.278;2022-08-21T11:35:00;74823.16;;;36.67;35.02
19759;BME280;10038;42.662;23.278;2022-08-21T11:37:44;74929.38;;;37.63;32.94
19759;BME280;10038;42.662;23.278;2022-08-21T11:40:24;74776.06;;;36.27;34.17
19759;BME280;10038;42.662;23.278;2022-08-21T11:43:01;74653.69;;;35.22;36.69
19759;BME280;10038;42.662;23.278;2022-08-21T11:45:39;74489.09;;;33.80;38.28
19759;BME280;10038;42.662;23.278;2022-08-21T11:48:18;74473.22;;;33.67;39.32
19759;BME280;10038;42.662;23.278;2022-08-21T11:50:50;74241.72;;;31.66;41.44
19759;BME280;10038;42.662;23.278;2022-08-21T11:53:28;74129.06;;;30.69;44.46
19759;BME280;10038;42.662;23.278;2022-08-21T11:56:02;74027.03;;;29.81;47.37
19759;BME280;10038;42.662;23.278;2022-08-21T11:58:34;73970.78;;;29.33;49.80
19759;BME280;10038;42.662;23.278;2022-08-21T12:01:07;73955.53;;;29.19;50.73
19759;BME280;10038;42.662;23.278;2022-08-21T12:03:38;73909.13;;;28.77;51.43
19759;BME280;10038;42.662;23.278;2022-08-21T12:06:10;73868.09;;;28.42;52.92
19759;BME280;10038;42.662;23.278;2022-08-21T12:08:38;73759.22;;;27.48;54.61
19759;BME280;10038;42.662;23.278;2022-08-21T12:11:08;73781.44;;;27.67;54.63
19759;BME280;10038;42.662;23.278;2022-08-21T12:13:37;73742.81;;;27.34;55.99
19759;BME280;10038;42.662;23.278;2022-08-21T12:16:06;73773.84;;;27.61;56.64
19759;BME280;10038;42.662;23.278;2022-08-21T12:18:34;73751.03;;;27.41;57.13
19759;BME280;10038;42.662;23.278;2022-08-21T12:21:16;73755.25;;;27.47;57.33
19759;BME280;10038;42.662;23.278;2022-08-21T12:23:48;73734.16;;;27.29;58.18
19759;BME280;10038;42.662;23.278;2022-08-21T12:26:34;73729.50;;;27.25;57.81
19759;BME280;10038;42.662;23.278;2022-08-21T12:29:13;73716.50;;;27.11;57.61
19759;BME280;10038;42.662;23.278;2022-08-21T12:31:56;73705.09;;;26.97;58.56
19759;BME280;10038;42.662;23.278;2022-08-21T12:34:27;73683.72;;;26.83;58.95
19759;BME280;10038;42.662;23.278;2022-08-21T12:37:00;73652.72;;;26.56;60.02
19759;BME280;10038;42.662;23.278;2022-08-21T12:39:32;73656.94;;;26.62;60.33
19759;BME280;10038;42.662;23.278;2022-08-21T12:42:04;73675.81;;;26.71;58.48
19759;BME280;10038;42.662;23.278;2022-08-21T12:44:38;73645.09;;;26.50;59.35
19759;BME280;10038;42.662;23.278;2022-08-21T12:47:14;73639.84;;;26.45;60.59
19759;BME280;10038;42.662;23.278;2022-08-21T12:49:48;73645.69;;;26.50;60.86
19759;BME280;10038;42.662;23.278;2022-08-21T12:52:22;73645.41;;;26.45;61.41
19759;BME280;10038;42.662;23.278;2022-08-21T12:54:50;73628.72;;;26.35;62.17
19759;BME280;10038;42.662;23.278;2022-08-21T12:57:20;73571.41;;;25.86;62.87
19759;BME280;10038;42.662;23.278;2022-08-21T12:59:52;73590.44;;;25.98;63.77